Řízení letového provozu České republiky
Letiste: LKLN Aktualizace: 28.06.2017 05:06:06  UTC
 METAR LKLN 28.06. 05:00 ...
METAR LKLN 280500Z AUTO 03003KT 340V070 4200 BR OVC004 15/14 Q1003=